CheckWX is a tool to help pilots better visualize weather data.  It is not intended as a substitute for an official pre-flight weather briefing.

03:39:11 UTC

KPOU METAR
Hudson Valley Regional Airport
Poughkeepsie, New York, USA
Current

46 mins ago

KPOU 270253Z AUTO 00000KT 10SM CLR 19/16 A2987 RMK AO2 SLP111 T01940161 51012
Observed
May-27 @ 02:53 UTC
Visibility
10 SM
Flight Rules
VFR
Cloud Levels
  • Clear skies
Temperature
19°C / 66°F
Dewpoint
16°C / 61°F
Humidity
83%
Altimeter
29.87" Hg
Pressure
1011.52 hPa
Previous

2 hours ago

KPOU 270153Z AUTO 15004KT 10SM FEW090 20/16 A2987 RMK AO2 SLP109 T02000161
Observed
May-27 @ 01:53 UTC
Wind
  • 150° at 4 KTS
Visibility
10 SM
Flight Rules
VFR
Cloud Levels
  • Few at 9,000' AGL
Temperature
20°C / 68°F
Dewpoint
16°C / 61°F
Humidity
78%
Altimeter
29.87" Hg
Pressure
1011.52 hPa
Previous

3 hours ago

KPOU 270053Z 18004KT 10SM CLR 21/16 A2985 RMK AO2 SLP103 T02060161
Observed
May-27 @ 00:53 UTC
Wind
  • 180° at 4 KTS
Visibility
10 SM
Flight Rules
VFR
Cloud Levels
  • Clear skies
Temperature
21°C / 70°F
Dewpoint
16°C / 61°F
Humidity
73%
Altimeter
29.85" Hg
Pressure
1010.82 hPa